Terminal Aerodrome Forecast
Issued by NWS

Home | Current Version | Previous Version | Graphics & Text | Print | Product List | Glossary On
Versions: 1 2 3 4 5 6 7 8 9 10 11 12 13 14 15 16
000
FTUS43 KMPX 242343
TAFRNH
TAF
KRNH 242343Z 2500/2524 13008KT P6SM -RA SCT015 OVC030
     FM250600 09010KT 6SM BR OVC014
     FM251500 08014G20KT P6SM OVC019
     FM251800 07016G22KT P6SM BKN020 OVC030=

USA.gov is the U.S. government's official web portal to all federal, state and local government web resources and services.